createdAt,value
2023-02-02T00:01:11.548Z,22.95
2023-02-02T00:03:39.500Z,22.38
2023-02-02T00:06:06.723Z,21.10
2023-02-02T00:08:35.963Z,22.05
2023-02-02T00:11:03.040Z,17.40
2023-02-02T00:13:29.909Z,27.25
2023-02-02T00:15:56.862Z,25.23
2023-02-02T00:18:23.787Z,16.15
2023-02-02T00:20:50.865Z,19.67
2023-02-02T00:23:17.783Z,20.13
2023-02-02T00:25:44.678Z,24.55
2023-02-02T00:28:11.529Z,27.13
2023-02-02T00:30:38.410Z,17.23
2023-02-02T00:33:05.259Z,21.08
2023-02-02T00:35:32.209Z,21.27
2023-02-02T00:37:59.173Z,24.80
2023-02-02T00:40:26.107Z,15.60
2023-02-02T00:42:52.959Z,23.90
2023-02-02T00:45:19.916Z,19.90
2023-02-02T00:47:50.006Z,20.65
2023-02-02T00:50:21.438Z,21.98
2023-02-02T00:52:49.347Z,25.35
2023-02-02T00:55:17.307Z,20.85
2023-02-02T00:57:47.015Z,19.45
2023-02-02T01:00:26.017Z,22.50
2023-02-02T01:02:54.421Z,25.02
2023-02-02T01:05:21.881Z,20.45
2023-02-02T01:07:48.901Z,14.25
2023-02-02T01:10:18.500Z,18.50
2023-02-02T01:15:13.155Z,22.75
2023-02-02T01:17:40.570Z,22.73
2023-02-02T01:20:11.082Z,19.95
2023-02-02T01:22:38.577Z,16.48
2023-02-02T01:25:05.970Z,23.33
2023-02-02T01:27:32.846Z,15.50
2023-02-02T01:29:59.851Z,19.38
2023-02-02T01:32:26.965Z,25.70
2023-02-02T01:34:53.813Z,20.52
2023-02-02T01:37:22.222Z,15.75
2023-02-02T01:39:49.545Z,20.58
2023-02-02T01:42:22.365Z,20.52
2023-02-02T01:45:07.490Z,16.73
2023-02-02T01:47:43.599Z,25.00
2023-02-02T01:50:13.231Z,22.17
2023-02-02T01:55:11.768Z,17.95
2023-02-02T01:57:50.859Z,21.58
2023-02-02T02:00:25.004Z,18.58
2023-02-02T02:03:04.998Z,19.30
2023-02-02T02:05:38.390Z,18.13
2023-02-02T02:08:35.949Z,15.48
2023-02-02T02:11:03.381Z,19.13
2023-02-02T02:13:50.737Z,18.73
2023-02-02T02:16:40.956Z,16.23
2023-02-02T02:20:05.939Z,22.40
2023-02-02T02:23:22.095Z,17.08
2023-02-02T02:26:36.675Z,16.58
2023-02-02T02:29:06.559Z,18.02
2023-02-02T02:31:33.460Z,22.55
2023-02-02T02:34:12.310Z,22.00
2023-02-02T02:36:56.859Z,17.67
2023-02-02T02:39:38.723Z,15.90
2023-02-02T02:42:13.328Z,21.40
2023-02-02T02:44:41.537Z,22.33
2023-02-02T02:47:08.887Z,18.70
2023-02-02T02:49:46.183Z,16.38
2023-02-02T02:52:13.322Z,25.48
2023-02-02T02:54:51.631Z,18.52
2023-02-02T02:57:51.972Z,18.35
2023-02-02T03:00:37.043Z,19.30
2023-02-02T03:03:16.526Z,21.67
2023-02-02T03:06:29.323Z,21.33
2023-02-02T03:11:27.951Z,19.98
2023-02-02T03:13:55.531Z,16.88
2023-02-02T03:16:22.736Z,17.55
2023-02-02T03:18:49.683Z,21.52
2023-02-02T03:21:16.577Z,26.48
2023-02-02T03:23:43.456Z,14.15
2023-02-02T03:26:10.440Z,15.65
2023-02-02T03:28:37.571Z,20.88
2023-02-02T03:31:04.996Z,21.05
2023-02-02T03:33:35.515Z,12.93
2023-02-02T03:36:02.420Z,13.63
2023-02-02T03:38:29.403Z,12.90
2023-02-02T03:40:56.361Z,11.93
2023-02-02T03:43:24.811Z,9.50
2023-02-02T03:46:04.456Z,12.18
2023-02-02T03:48:32.520Z,6.50
2023-02-02T03:51:05.412Z,11.88
2023-02-02T03:53:32.358Z,10.50
2023-02-02T03:56:01.073Z,9.07
2023-02-02T03:58:27.989Z,7.90
2023-02-02T04:00:59.103Z,7.28
2023-02-02T04:03:25.949Z,9.75
2023-02-02T04:05:52.822Z,7.82
2023-02-02T04:08:19.669Z,6.40
2023-02-02T04:10:46.539Z,8.40
2023-02-02T04:13:13.477Z,7.15
2023-02-02T04:15:41.037Z,6.22
2023-02-02T04:18:07.937Z,10.30
2023-02-02T04:20:34.776Z,6.20
2023-02-02T04:23:01.671Z,7.60
2023-02-02T04:25:28.597Z,14.93
2023-02-02T04:27:55.539Z,7.72
2023-02-02T04:30:22.446Z,5.85
2023-02-02T04:32:51.622Z,7.30
2023-02-02T04:35:18.492Z,6.53
2023-02-02T04:37:45.992Z,7.20
2023-02-02T04:40:13.758Z,6.45
2023-02-02T04:42:40.608Z,7.38
2023-02-02T04:45:07.964Z,6.22
2023-02-02T04:47:34.834Z,9.57
2023-02-02T04:50:01.674Z,7.10
2023-02-02T04:52:29.314Z,6.35
2023-02-02T04:54:56.159Z,6.00
2023-02-02T04:57:23.117Z,4.72
2023-02-02T04:59:50.023Z,5.43
2023-02-02T05:02:16.873Z,7.38
2023-02-02T05:04:43.810Z,7.28
2023-02-02T05:07:10.848Z,4.18
2023-02-02T05:09:37.794Z,7.22
2023-02-02T05:12:05.012Z,6.32
2023-02-02T05:14:31.814Z,8.35
2023-02-02T05:16:58.728Z,4.30
2023-02-02T05:19:25.642Z,3.35
2023-02-02T05:21:54.675Z,6.40
2023-02-02T05:24:21.557Z,3.00
2023-02-02T05:26:48.432Z,3.53
2023-02-02T05:29:15.342Z,5.82
2023-02-02T05:31:42.221Z,3.85
2023-02-02T05:34:11.516Z,4.07
2023-02-02T05:36:38.469Z,5.60
2023-02-02T05:39:05.678Z,7.57
2023-02-02T05:41:32.889Z,4.03
2023-02-02T05:44:00.337Z,6.35
2023-02-02T05:46:27.616Z,4.30
2023-02-02T05:48:54.618Z,5.57
2023-02-02T05:51:37.314Z,6.45
2023-02-02T05:54:04.320Z,4.93
2023-02-02T05:56:31.223Z,4.40
2023-02-02T05:58:58.853Z,5.57
2023-02-02T06:01:26.143Z,3.67
2023-02-02T06:03:53.140Z,6.55
2023-02-02T06:06:20.521Z,3.85
2023-02-02T06:08:47.418Z,3.53
2023-02-02T06:11:16.761Z,6.18
2023-02-02T06:13:45.926Z,5.03
2023-02-02T06:16:13.243Z,5.05
2023-02-02T06:18:40.331Z,4.78
2023-02-02T06:21:07.363Z,4.53
2023-02-02T06:23:34.862Z,4.75
2023-02-02T06:26:04.339Z,6.65
2023-02-02T06:28:31.759Z,3.30
2023-02-02T06:31:08.228Z,4.72
2023-02-02T06:33:35.589Z,4.70
2023-02-02T06:36:03.818Z,4.63
2023-02-02T06:38:32.273Z,4.50
2023-02-02T06:41:00.480Z,6.72
2023-02-02T06:43:27.839Z,8.23
2023-02-02T06:45:54.812Z,7.30
2023-02-02T06:48:21.700Z,11.02
2023-02-02T06:50:48.587Z,10.57
2023-02-02T06:53:16.022Z,10.13
2023-02-02T06:55:42.886Z,7.93
2023-02-02T06:58:09.754Z,7.82
2023-02-02T07:00:38.289Z,7.70
2023-02-02T07:03:05.575Z,9.15
2023-02-02T07:05:32.680Z,11.35
2023-02-02T07:07:59.673Z,9.82
2023-02-02T07:11:13.923Z,9.15
2023-02-02T07:13:13.665Z,8.13
2023-02-02T07:15:41.147Z,12.20
2023-02-02T07:18:08.589Z,9.35
2023-02-02T07:20:35.791Z,8.13
2023-02-02T07:23:04.530Z,7.97
2023-02-02T07:25:31.780Z,5.82
2023-02-02T07:27:58.690Z,10.48
2023-02-02T07:30:29.945Z,6.57
2023-02-02T07:32:57.407Z,9.52
2023-02-02T07:35:24.704Z,7.20
2023-02-02T07:37:56.167Z,8.73
2023-02-02T07:40:23.186Z,6.03
2023-02-02T07:42:50.080Z,5.68
2023-02-02T07:45:27.550Z,11.90
2023-02-02T07:47:58.925Z,7.15
2023-02-02T07:50:26.598Z,8.93
2023-02-02T07:52:53.920Z,11.93
2023-02-02T07:55:21.172Z,12.45
2023-02-02T07:57:48.068Z,10.88
2023-02-02T08:00:15.201Z,12.65
2023-02-02T08:02:42.137Z,12.40
2023-02-02T08:05:09.610Z,12.10
2023-02-02T08:07:36.632Z,7.78
2023-02-02T08:10:03.782Z,10.88
2023-02-02T08:12:30.740Z,8.40
2023-02-02T08:14:59.225Z,9.95
2023-02-02T08:17:26.145Z,8.55
2023-02-02T08:19:53.018Z,7.88
2023-02-02T08:22:20.452Z,10.05
2023-02-02T08:24:48.073Z,10.45
2023-02-02T08:27:16.399Z,11.93
2023-02-02T08:29:43.558Z,6.78
2023-02-02T08:32:10.529Z,8.73
2023-02-02T08:34:37.616Z,6.75
2023-02-02T08:37:04.511Z,7.78
2023-02-02T08:39:31.530Z,9.27
2023-02-02T08:41:58.511Z,4.78
2023-02-02T08:44:28.471Z,9.65
2023-02-02T08:47:13.501Z,7.63
2023-02-02T08:49:42.474Z,8.82
2023-02-02T08:52:09.531Z,8.40
2023-02-02T08:54:36.382Z,9.35
2023-02-02T08:57:03.378Z,10.43
2023-02-02T08:59:30.227Z,7.82
2023-02-02T09:01:57.146Z,8.90
2023-02-02T09:04:24.077Z,10.75
2023-02-02T09:06:50.955Z,13.23
2023-02-02T09:09:17.890Z,9.05
2023-02-02T09:11:45.107Z,9.32
2023-02-02T09:14:14.169Z,7.78
2023-02-02T09:16:41.324Z,9.75
2023-02-02T09:19:08.452Z,12.40
2023-02-02T09:21:37.246Z,8.82
2023-02-02T09:24:13.002Z,11.63
2023-02-02T09:26:40.835Z,9.63
2023-02-02T09:29:11.229Z,11.52
2023-02-02T09:31:39.003Z,9.90
2023-02-02T09:34:09.377Z,8.20
2023-02-02T09:36:37.762Z,7.07
2023-02-02T09:39:06.210Z,11.27
2023-02-02T09:41:39.404Z,8.75
2023-02-02T09:44:37.378Z,6.28
2023-02-02T09:47:19.372Z,8.15
2023-02-02T09:50:11.137Z,6.45
2023-02-02T09:53:07.764Z,7.38
2023-02-02T09:55:47.337Z,5.75
2023-02-02T09:58:34.922Z,6.57
2023-02-02T10:01:04.759Z,7.55
2023-02-02T10:03:39.580Z,5.53
2023-02-02T10:06:38.667Z,5.43
2023-02-02T10:09:27.238Z,6.75
2023-02-02T10:12:17.398Z,4.72
2023-02-02T10:15:00.646Z,6.40
2023-02-02T10:18:09.262Z,5.97
2023-02-02T10:20:47.882Z,5.13
2023-02-02T10:23:50.074Z,6.63
2023-02-02T10:26:23.678Z,6.68
2023-02-02T10:28:50.720Z,6.78
2023-02-02T10:31:38.815Z,4.97
2023-02-02T10:34:16.433Z,6.72
2023-02-02T10:36:43.196Z,6.25
2023-02-02T10:39:33.709Z,4.13
2023-02-02T10:42:45.476Z,6.88
2023-02-02T10:45:20.478Z,5.97
2023-02-02T10:47:47.791Z,6.10
2023-02-02T10:50:14.711Z,6.20
2023-02-02T10:52:53.155Z,6.13
2023-02-02T10:55:26.366Z,6.43
2023-02-02T10:58:04.286Z,4.70
2023-02-02T11:00:46.872Z,9.02
2023-02-02T11:03:16.392Z,3.78
2023-02-02T11:08:34.426Z,5.53
2023-02-02T11:11:41.821Z,7.63
2023-02-02T11:14:09.242Z,3.67
2023-02-02T11:16:44.270Z,5.28
2023-02-02T11:19:32.709Z,3.58
2023-02-02T11:22:02.732Z,3.63
2023-02-02T11:24:41.781Z,5.15
2023-02-02T11:27:14.528Z,3.60
2023-02-02T11:29:54.488Z,5.85
2023-02-02T11:32:32.704Z,6.93
2023-02-02T11:35:08.863Z,4.05
2023-02-02T11:37:37.949Z,7.60
2023-02-02T11:40:27.491Z,3.35
2023-02-02T11:43:10.797Z,4.85
2023-02-02T11:45:41.610Z,6.75
2023-02-02T11:48:24.495Z,5.55
2023-02-02T11:50:59.954Z,5.88
2023-02-02T11:53:26.756Z,7.07
2023-02-02T11:55:55.097Z,5.47
2023-02-02T11:58:27.343Z,8.63
2023-02-02T12:01:03.756Z,9.88
2023-02-02T12:03:38.761Z,6.93
2023-02-02T12:06:34.881Z,6.93
2023-02-02T12:09:09.662Z,5.50
2023-02-02T12:11:51.004Z,5.40
2023-02-02T12:14:47.051Z,6.60
2023-02-02T12:17:23.094Z,4.15
2023-02-02T12:20:16.646Z,6.95
2023-02-02T12:23:05.687Z,7.03
2023-02-02T12:26:10.382Z,9.38
2023-02-02T12:29:19.347Z,5.32
2023-02-02T12:32:15.367Z,8.93
2023-02-02T12:34:48.170Z,6.32
2023-02-02T12:37:36.996Z,9.27
2023-02-02T12:40:20.614Z,9.55
2023-02-02T12:43:03.980Z,5.43
2023-02-02T12:45:45.661Z,5.75
2023-02-02T12:48:27.167Z,8.70
2023-02-02T12:51:07.712Z,7.85
2023-02-02T12:53:46.243Z,6.38
2023-02-02T12:56:51.986Z,6.93
2023-02-02T12:59:50.906Z,6.70
2023-02-02T13:02:31.632Z,5.65
2023-02-02T13:05:13.553Z,7.80
2023-02-02T13:07:42.628Z,6.85
2023-02-02T13:10:17.447Z,11.75
2023-02-02T13:12:53.035Z,6.40
2023-02-02T13:15:24.135Z,8.07
2023-02-02T13:17:56.338Z,8.30
2023-02-02T13:20:35.211Z,6.57
2023-02-02T13:23:15.246Z,7.30
2023-02-02T13:26:00.252Z,7.05
2023-02-02T13:29:00.016Z,10.27
2023-02-02T13:31:44.188Z,9.30
2023-02-02T13:34:37.792Z,11.73
2023-02-02T13:37:14.995Z,7.25
2023-02-02T13:40:03.701Z,7.20
2023-02-02T13:42:49.177Z,7.03
2023-02-02T13:45:40.946Z,6.78
2023-02-02T13:48:35.526Z,8.88
2023-02-02T13:51:33.278Z,5.35
2023-02-02T13:54:22.243Z,9.07
2023-02-02T13:57:04.210Z,6.45
2023-02-02T13:59:53.183Z,11.07
2023-02-02T14:02:38.811Z,9.55
2023-02-02T14:05:07.410Z,5.65
2023-02-02T14:07:44.187Z,9.07
2023-02-02T14:10:25.714Z,6.13
2023-02-02T14:12:53.655Z,4.22
2023-02-02T14:15:40.765Z,7.13
2023-02-02T14:18:07.997Z,12.70
2023-02-02T14:20:47.887Z,5.07
2023-02-02T14:23:51.039Z,7.65
2023-02-02T14:26:40.600Z,7.22
2023-02-02T14:29:31.530Z,12.57
2023-02-02T14:32:29.102Z,9.50
2023-02-02T14:34:58.394Z,10.52
2023-02-02T14:37:26.245Z,9.15
2023-02-02T14:40:05.377Z,10.77
2023-02-02T14:43:09.463Z,12.23
2023-02-02T14:45:41.013Z,11.07
2023-02-02T14:48:17.098Z,13.35
2023-02-02T14:51:01.994Z,14.88
2023-02-02T14:53:33.761Z,17.05
2023-02-02T14:56:11.008Z,12.30
2023-02-02T14:58:44.197Z,13.15
2023-02-02T15:01:27.336Z,19.92
2023-02-02T15:04:33.240Z,10.80
2023-02-02T15:07:23.094Z,15.63
2023-02-02T15:09:56.416Z,9.30
2023-02-02T15:12:34.866Z,13.50
2023-02-02T15:15:14.015Z,10.90
2023-02-02T15:17:41.295Z,16.15
2023-02-02T15:20:36.265Z,10.60
2023-02-02T15:23:25.148Z,14.40
2023-02-02T15:26:30.782Z,16.55
2023-02-02T15:29:01.544Z,15.77
2023-02-02T15:31:42.965Z,12.07
2023-02-02T15:34:38.160Z,14.45
2023-02-02T15:37:08.147Z,17.52
2023-02-02T15:39:42.169Z,15.48
2023-02-02T15:42:43.357Z,17.25
2023-02-02T15:45:34.747Z,15.65
2023-02-02T15:48:10.487Z,18.50
2023-02-02T15:50:39.544Z,20.70
2023-02-02T15:53:21.110Z,21.50
2023-02-02T15:55:48.331Z,19.90
2023-02-02T15:58:47.185Z,26.85
2023-02-02T16:01:21.641Z,22.13
2023-02-02T16:04:27.327Z,20.92
2023-02-02T16:06:54.768Z,22.77
2023-02-02T16:09:27.550Z,21.95
2023-02-02T16:11:54.835Z,19.35
2023-02-02T16:14:22.289Z,25.33
2023-02-02T16:16:49.745Z,20.58
2023-02-02T16:19:21.310Z,22.23
2023-02-02T16:22:00.083Z,24.05
2023-02-02T16:24:51.686Z,21.63
2023-02-02T16:27:22.350Z,23.00
2023-02-02T16:29:50.074Z,23.88
2023-02-02T16:32:38.804Z,30.77
2023-02-02T16:35:27.594Z,22.15
2023-02-02T16:38:15.853Z,17.58
2023-02-02T16:40:42.919Z,19.50
2023-02-02T16:43:28.690Z,16.58
2023-02-02T16:46:00.482Z,20.48
2023-02-02T16:48:57.216Z,17.23
2023-02-02T16:51:27.086Z,15.18
2023-02-02T16:54:02.009Z,14.48
2023-02-02T16:56:40.958Z,16.17
2023-02-02T16:59:35.087Z,20.20
2023-02-02T17:02:16.662Z,19.02
2023-02-02T17:04:49.200Z,16.83
2023-02-02T17:07:17.525Z,16.90
2023-02-02T17:09:46.900Z,19.05
2023-02-02T17:12:32.830Z,15.60
2023-02-02T17:15:28.431Z,16.52
2023-02-02T17:17:55.857Z,18.38
2023-02-02T17:20:23.225Z,18.10
2023-02-02T17:23:02.397Z,16.40
2023-02-02T17:25:50.994Z,13.02
2023-02-02T17:28:20.421Z,17.20
2023-02-02T17:31:18.523Z,13.32
2023-02-02T17:33:45.874Z,13.57
2023-02-02T17:36:13.578Z,16.58
2023-02-02T17:38:46.973Z,15.07
2023-02-02T17:41:14.432Z,15.95
2023-02-02T17:43:42.818Z,18.80
2023-02-02T17:46:13.020Z,20.75
2023-02-02T17:48:40.115Z,23.85
2023-02-02T17:51:16.487Z,24.90
2023-02-02T17:53:44.772Z,17.25
2023-02-02T17:56:11.625Z,21.58
2023-02-02T17:58:38.456Z,23.02
2023-02-02T18:01:05.553Z,25.40
2023-02-02T18:03:35.972Z,21.77
2023-02-02T18:06:03.851Z,19.17
2023-02-02T18:08:32.570Z,23.45
2023-02-02T18:10:59.885Z,22.70
2023-02-02T18:13:27.182Z,26.15
2023-02-02T18:15:56.002Z,26.83
2023-02-02T18:18:23.133Z,28.02
2023-02-02T18:20:50.698Z,27.90
2023-02-02T18:23:18.747Z,29.13
2023-02-02T18:25:46.169Z,29.58
2023-02-02T18:28:17.157Z,25.50
2023-02-02T18:30:45.496Z,27.25
2023-02-02T18:33:13.513Z,36.85
2023-02-02T18:35:45.633Z,24.73
2023-02-02T18:38:13.121Z,22.92
2023-02-02T18:40:40.288Z,30.73
2023-02-02T18:43:07.185Z,29.73
2023-02-02T18:45:34.118Z,24.80
2023-02-02T18:48:01.034Z,28.63
2023-02-02T18:50:28.093Z,20.00
2023-02-02T18:52:56.807Z,24.58
2023-02-02T18:55:24.289Z,23.75
2023-02-02T18:57:51.520Z,22.65
2023-02-02T19:00:19.358Z,22.40
2023-02-02T19:02:46.242Z,23.10
2023-02-02T19:05:45.390Z,23.20
2023-02-02T19:08:12.305Z,19.38
2023-02-02T19:10:39.138Z,19.40
2023-02-02T19:13:06.633Z,27.98
2023-02-02T19:15:37.116Z,21.42
2023-02-02T19:18:15.358Z,21.65
2023-02-02T19:20:43.042Z,25.58
2023-02-02T19:23:19.073Z,20.83
2023-02-02T19:25:51.273Z,18.48
2023-02-02T19:28:28.173Z,19.52
2023-02-02T19:31:03.102Z,22.33
2023-02-02T19:33:41.931Z,20.50
2023-02-02T19:36:18.942Z,26.02
2023-02-02T19:38:51.803Z,22.38
2023-02-02T19:41:20.206Z,16.88
2023-02-02T19:43:48.494Z,18.02
2023-02-02T19:46:22.770Z,19.17
2023-02-02T19:48:53.909Z,17.83
2023-02-02T19:51:48.703Z,18.08
2023-02-02T19:54:24.439Z,20.25
2023-02-02T19:56:58.174Z,16.45
2023-02-02T19:59:29.801Z,19.23
2023-02-02T20:01:59.259Z,21.10
2023-02-02T20:04:27.596Z,17.90
2023-02-02T20:06:59.526Z,18.35
2023-02-02T20:09:33.584Z,25.75
2023-02-02T20:12:21.275Z,23.75
2023-02-02T20:14:48.737Z,21.02
2023-02-02T20:17:32.856Z,19.95
2023-02-02T20:20:00.544Z,16.90
2023-02-02T20:22:29.094Z,19.05
2023-02-02T20:24:57.375Z,21.90
2023-02-02T20:27:27.423Z,19.95
2023-02-02T20:29:57.984Z,15.50
2023-02-02T20:32:31.469Z,16.52
2023-02-02T20:34:59.727Z,17.65
2023-02-02T20:37:29.183Z,18.05
2023-02-02T20:40:32.432Z,20.33
2023-02-02T20:43:01.594Z,17.35
2023-02-02T20:45:28.421Z,18.25
2023-02-02T20:47:55.272Z,18.63
2023-02-02T20:50:23.017Z,14.32
2023-02-02T20:52:51.821Z,14.63
2023-02-02T20:55:18.983Z,16.87
2023-02-02T20:57:46.051Z,17.55
2023-02-02T21:00:16.028Z,16.67
2023-02-02T21:02:43.054Z,17.23
2023-02-02T21:05:10.117Z,17.70
2023-02-02T21:07:37.130Z,13.27
2023-02-02T21:10:05.234Z,13.68
2023-02-02T21:12:32.172Z,23.83
2023-02-02T21:14:59.107Z,17.08
2023-02-02T21:17:27.508Z,15.38
2023-02-02T21:19:54.650Z,17.27
2023-02-02T21:22:21.684Z,17.27
2023-02-02T21:24:48.645Z,16.05
2023-02-02T21:27:15.605Z,15.80
2023-02-02T21:29:42.532Z,15.38
2023-02-02T21:32:09.550Z,17.73
2023-02-02T21:34:37.851Z,13.15
2023-02-02T21:37:14.968Z,14.18
2023-02-02T21:39:48.264Z,12.95
2023-02-02T21:42:16.700Z,13.98
2023-02-02T21:45:25.355Z,16.88
2023-02-02T21:47:58.533Z,16.23
2023-02-02T21:50:28.772Z,14.27
2023-02-02T21:53:17.178Z,13.75
2023-02-02T21:55:45.492Z,12.15
2023-02-02T21:58:22.859Z,13.68
2023-02-02T22:00:50.576Z,10.88
2023-02-02T22:03:38.012Z,15.15
2023-02-02T22:06:04.777Z,12.50
2023-02-02T22:08:36.787Z,13.50
2023-02-02T22:11:03.808Z,10.82
2023-02-02T22:13:35.278Z,11.52
2023-02-02T22:16:02.329Z,11.50
2023-02-02T22:18:29.679Z,15.00
2023-02-02T22:20:56.889Z,14.45
2023-02-02T22:23:29.919Z,12.32
2023-02-02T22:25:58.568Z,13.90
2023-02-02T22:28:46.571Z,8.27
2023-02-02T22:31:13.550Z,11.40
2023-02-02T22:33:40.430Z,10.70
2023-02-02T22:36:07.800Z,9.18
2023-02-02T22:38:34.618Z,15.38
2023-02-02T22:41:01.629Z,8.25
2023-02-02T22:43:28.476Z,10.90
2023-02-02T22:45:55.352Z,13.63
2023-02-02T22:48:22.374Z,11.60
2023-02-02T22:50:49.178Z,8.27
2023-02-02T22:53:16.069Z,12.52
2023-02-02T22:55:43.487Z,11.00
2023-02-02T22:58:10.380Z,10.43
2023-02-02T23:00:37.729Z,8.88
2023-02-02T23:03:04.680Z,9.90
2023-02-02T23:05:31.606Z,9.68
2023-02-02T23:08:01.015Z,11.30
2023-02-02T23:10:29.850Z,13.45
2023-02-02T23:12:58.707Z,7.80
2023-02-02T23:15:26.289Z,14.30
2023-02-02T23:17:53.601Z,13.55
2023-02-02T23:20:20.692Z,11.00
2023-02-02T23:22:47.495Z,12.52
2023-02-02T23:25:15.001Z,13.40
2023-02-02T23:27:42.398Z,9.25
2023-02-02T23:30:10.332Z,13.80
2023-02-02T23:32:37.211Z,8.00
2023-02-02T23:35:05.147Z,9.18
2023-02-02T23:37:32.063Z,8.65
2023-02-02T23:39:58.919Z,8.75
2023-02-02T23:42:25.962Z,9.10
2023-02-02T23:44:53.006Z,11.38
2023-02-02T23:47:19.963Z,10.48
2023-02-02T23:49:47.063Z,8.50
2023-02-02T23:52:14.754Z,10.95
2023-02-02T23:54:41.873Z,8.68
2023-02-02T23:57:08.912Z,11.20
2023-02-02T23:59:35.778Z,9.73
